createdAt,value
2019-05-23T00:00:32.004Z,6.90
2019-05-23T00:02:58.776Z,6.90
2019-05-23T00:05:25.642Z,6.90
2019-05-23T00:07:52.493Z,6.90
2019-05-23T00:10:20.115Z,6.90
2019-05-23T00:12:49.142Z,6.90
2019-05-23T00:15:26.749Z,6.80
2019-05-23T00:17:53.720Z,6.80
2019-05-23T00:20:20.704Z,6.90
2019-05-23T00:22:47.520Z,6.70
2019-05-23T00:25:15.322Z,6.70
2019-05-23T00:27:43.731Z,6.60
2019-05-23T00:30:11.456Z,6.60
2019-05-23T00:32:38.440Z,6.70
2019-05-23T00:35:06.697Z,6.60
2019-05-23T00:37:33.644Z,6.70
2019-05-23T00:40:00.739Z,6.70
2019-05-23T00:42:29.263Z,6.70
2019-05-23T00:44:56.212Z,6.60
2019-05-23T00:47:23.497Z,6.50
2019-05-23T00:49:50.238Z,6.40
2019-05-23T00:52:16.974Z,6.40
2019-05-23T00:54:44.155Z,6.40
2019-05-23T00:57:10.901Z,6.20
2019-05-23T00:59:38.122Z,6.30
2019-05-23T01:02:05.057Z,6.20
2019-05-23T01:04:31.985Z,6.20
2019-05-23T01:06:59.254Z,6.30
2019-05-23T01:09:26.056Z,6.10
2019-05-23T01:11:53.262Z,6.10
2019-05-23T01:14:20.600Z,6.00
2019-05-23T01:16:47.595Z,6.00
2019-05-23T01:19:14.854Z,5.90
2019-05-23T01:21:41.687Z,6.00
2019-05-23T01:24:08.535Z,5.90
2019-05-23T01:26:35.265Z,5.90
2019-05-23T01:29:02.293Z,5.90
2019-05-23T01:31:29.387Z,5.80
2019-05-23T01:33:56.105Z,5.80
2019-05-23T01:36:23.072Z,5.80
2019-05-23T01:38:50.260Z,5.90
2019-05-23T01:41:17.007Z,6.10
2019-05-23T01:43:44.109Z,6.10
2019-05-23T01:46:11.170Z,5.90
2019-05-23T01:48:37.960Z,5.70
2019-05-23T01:51:05.650Z,5.80
2019-05-23T01:53:32.567Z,5.80
2019-05-23T01:55:59.245Z,5.70
2019-05-23T01:58:26.184Z,5.70
2019-05-23T02:00:52.977Z,5.70
2019-05-23T02:03:20.011Z,5.80
2019-05-23T02:05:46.730Z,5.90
2019-05-23T02:08:14.230Z,5.80
2019-05-23T02:10:41.167Z,5.70
2019-05-23T02:13:09.355Z,5.70
2019-05-23T02:15:36.225Z,5.60
2019-05-23T02:18:03.784Z,5.50
2019-05-23T02:20:30.511Z,5.50
2019-05-23T02:22:57.450Z,5.60
2019-05-23T02:25:25.695Z,5.60
2019-05-23T02:27:52.633Z,5.40
2019-05-23T02:30:34.301Z,5.50
2019-05-23T02:32:50.400Z,5.50
2019-05-23T02:35:17.821Z,5.50
2019-05-23T02:37:44.811Z,5.60
2019-05-23T02:40:12.138Z,5.60
2019-05-23T02:42:38.979Z,5.50
2019-05-23T02:45:07.186Z,5.30
2019-05-23T02:47:35.313Z,5.30
2019-05-23T02:50:05.751Z,5.20
2019-05-23T02:52:43.782Z,5.30
2019-05-23T02:55:24.712Z,5.30
2019-05-23T02:57:51.906Z,5.10
2019-05-23T03:00:53.593Z,5.10
2019-05-23T03:03:14.540Z,5.10
2019-05-23T03:05:41.273Z,5.20
2019-05-23T03:08:09.627Z,4.90
2019-05-23T03:11:03.486Z,5.00
2019-05-23T03:13:31.305Z,5.00
2019-05-23T03:15:58.545Z,4.90
2019-05-23T03:18:27.411Z,4.90
2019-05-23T03:20:54.166Z,4.90
2019-05-23T03:23:21.333Z,4.90
2019-05-23T03:26:02.660Z,4.90
2019-05-23T03:28:39.185Z,5.00
2019-05-23T03:31:26.445Z,5.00
2019-05-23T03:33:34.610Z,4.90
2019-05-23T03:36:01.455Z,4.90
2019-05-23T03:38:28.259Z,4.90
2019-05-23T03:40:54.972Z,4.90
2019-05-23T03:43:22.101Z,4.90
2019-05-23T03:45:48.963Z,4.80
2019-05-23T03:48:16.414Z,4.90
2019-05-23T03:50:44.010Z,4.80
2019-05-23T03:53:11.105Z,4.70
2019-05-23T03:55:38.331Z,4.80
2019-05-23T03:58:05.257Z,4.80
2019-05-23T04:00:33.433Z,4.90
2019-05-23T04:03:01.175Z,4.70
2019-05-23T04:05:29.337Z,4.70
2019-05-23T04:07:56.340Z,4.80
2019-05-23T04:10:23.638Z,4.80
2019-05-23T04:12:50.852Z,4.70
2019-05-23T04:15:17.746Z,4.60
2019-05-23T04:17:44.582Z,4.70
2019-05-23T04:20:11.792Z,4.70
2019-05-23T04:22:38.681Z,4.70
2019-05-23T04:25:07.165Z,4.90
2019-05-23T04:27:34.116Z,4.80
2019-05-23T04:30:01.109Z,4.90
2019-05-23T04:32:27.944Z,4.80
2019-05-23T04:34:54.679Z,4.90
2019-05-23T04:37:21.478Z,4.90
2019-05-23T04:39:48.383Z,4.90
2019-05-23T04:42:15.261Z,5.00
2019-05-23T04:44:44.388Z,5.00
2019-05-23T04:47:11.063Z,5.10
2019-05-23T04:49:37.772Z,5.00
2019-05-23T04:52:04.869Z,5.00
2019-05-23T04:54:31.695Z,5.00
2019-05-23T04:56:58.729Z,5.00
2019-05-23T04:59:25.525Z,5.00
2019-05-23T05:01:54.180Z,5.00
2019-05-23T05:04:22.704Z,5.00
2019-05-23T05:06:49.621Z,5.10
2019-05-23T05:09:16.351Z,5.10
2019-05-23T05:11:43.094Z,5.20
2019-05-23T05:14:09.890Z,5.20
2019-05-23T05:16:36.712Z,5.20
2019-05-23T05:19:03.530Z,5.20
2019-05-23T05:21:31.042Z,5.30
2019-05-23T05:23:58.075Z,5.30
2019-05-23T05:26:24.844Z,5.40
2019-05-23T05:28:51.872Z,5.40
2019-05-23T05:31:19.283Z,5.40
2019-05-23T05:33:46.046Z,5.50
2019-05-23T05:36:13.214Z,5.60
2019-05-23T05:38:39.939Z,5.60
2019-05-23T05:41:06.852Z,5.70
2019-05-23T05:43:33.752Z,5.70
2019-05-23T05:46:00.457Z,5.80
2019-05-23T05:48:29.213Z,5.80
2019-05-23T05:50:56.408Z,5.90
2019-05-23T05:53:23.137Z,6.00
2019-05-23T05:55:49.869Z,6.10
2019-05-23T05:58:16.746Z,6.30
2019-05-23T06:00:43.480Z,6.40
2019-05-23T06:03:10.198Z,6.60
2019-05-23T06:05:37.183Z,6.70
2019-05-23T06:08:04.831Z,6.80
2019-05-23T06:10:31.680Z,6.90
2019-05-23T06:13:04.828Z,7.10
2019-05-23T06:15:31.672Z,7.20
2019-05-23T06:17:58.385Z,7.30
2019-05-23T06:20:27.894Z,7.50
2019-05-23T06:22:54.635Z,7.60
2019-05-23T06:25:22.043Z,7.70
2019-05-23T06:27:48.892Z,7.90
2019-05-23T06:30:18.089Z,8.00
2019-05-23T06:32:45.011Z,8.10
2019-05-23T06:35:12.497Z,8.30
2019-05-23T06:37:39.573Z,8.40
2019-05-23T06:40:07.075Z,8.50
2019-05-23T06:42:33.883Z,8.60
2019-05-23T06:45:00.609Z,8.70
2019-05-23T06:47:27.358Z,8.90
2019-05-23T06:49:54.226Z,8.90
2019-05-23T06:52:21.061Z,9.00
2019-05-23T06:54:47.795Z,9.10
2019-05-23T06:57:14.747Z,9.10
2019-05-23T06:59:41.600Z,9.20
2019-05-23T07:02:08.341Z,9.30
2019-05-23T07:04:35.335Z,9.30
2019-05-23T07:07:02.166Z,9.40
2019-05-23T07:09:29.212Z,9.40
2019-05-23T07:11:58.819Z,9.50
2019-05-23T07:14:26.065Z,9.60
2019-05-23T07:16:52.804Z,9.70
2019-05-23T07:19:20.394Z,9.80
2019-05-23T07:21:47.432Z,9.90
2019-05-23T07:24:14.180Z,10.00
2019-05-23T07:26:41.114Z,10.10
2019-05-23T07:29:10.358Z,10.20
2019-05-23T07:31:37.395Z,10.20
2019-05-23T07:34:04.426Z,10.30
2019-05-23T07:36:31.183Z,10.30
2019-05-23T07:38:57.932Z,10.30
2019-05-23T07:41:24.933Z,10.30
2019-05-23T07:43:51.984Z,10.40
2019-05-23T07:46:18.872Z,10.50
2019-05-23T07:48:45.829Z,10.60
2019-05-23T07:51:12.854Z,10.70
2019-05-23T07:53:39.898Z,10.70
2019-05-23T07:56:06.694Z,10.90
2019-05-23T07:58:33.440Z,10.90
2019-05-23T08:01:00.177Z,11.00
2019-05-23T08:03:30.981Z,11.00
2019-05-23T08:05:57.798Z,11.10
2019-05-23T08:08:24.670Z,11.20
2019-05-23T08:10:51.672Z,11.40
2019-05-23T08:13:18.534Z,11.50
2019-05-23T08:15:45.655Z,11.50
2019-05-23T08:18:12.744Z,11.50
2019-05-23T08:20:39.647Z,11.50
2019-05-23T08:23:06.393Z,11.50
2019-05-23T08:25:33.555Z,11.60
2019-05-23T08:28:00.316Z,11.70
2019-05-23T08:30:27.059Z,11.70
2019-05-23T08:32:54.254Z,11.70
2019-05-23T08:35:21.403Z,11.80
2019-05-23T08:37:48.136Z,11.80
2019-05-23T08:40:15.234Z,11.80
2019-05-23T08:42:43.061Z,11.90
2019-05-23T08:45:10.079Z,12.00
2019-05-23T08:47:37.051Z,12.10
2019-05-23T08:50:08.251Z,12.20
2019-05-23T08:52:34.955Z,12.30
2019-05-23T08:55:21.710Z,12.30
2019-05-23T08:57:48.830Z,12.40
2019-05-23T09:00:16.217Z,12.60
2019-05-23T09:02:44.483Z,12.60
2019-05-23T09:05:11.394Z,12.60
2019-05-23T09:07:38.119Z,12.70
2019-05-23T09:10:05.108Z,12.70
2019-05-23T09:12:32.922Z,12.60
2019-05-23T09:14:59.659Z,12.80
2019-05-23T09:17:26.736Z,12.90
2019-05-23T09:19:53.480Z,12.80
2019-05-23T09:22:20.202Z,12.90
2019-05-23T09:24:47.222Z,12.90
2019-05-23T09:27:13.953Z,12.90
2019-05-23T09:29:40.818Z,13.00
2019-05-23T09:32:07.915Z,13.00
2019-05-23T09:34:34.625Z,13.00
2019-05-23T09:37:01.448Z,13.10
2019-05-23T09:39:28.429Z,13.10
2019-05-23T09:41:55.342Z,13.30
2019-05-23T09:44:22.091Z,13.40
2019-05-23T09:46:48.946Z,13.40
2019-05-23T09:49:15.837Z,13.40
2019-05-23T09:51:42.576Z,13.50
2019-05-23T09:54:10.491Z,13.60
2019-05-23T09:56:37.242Z,13.70
2019-05-23T09:59:04.058Z,13.90
2019-05-23T10:01:31.363Z,14.00
2019-05-23T10:03:58.081Z,14.00
2019-05-23T10:06:24.896Z,14.00
2019-05-23T10:08:51.693Z,14.00
2019-05-23T10:11:18.422Z,14.10
2019-05-23T10:13:45.313Z,14.10
2019-05-23T10:16:12.245Z,14.10
2019-05-23T10:18:38.946Z,14.20
2019-05-23T10:21:05.772Z,14.20
2019-05-23T10:23:32.879Z,14.20
2019-05-23T10:25:59.603Z,14.30
2019-05-23T10:28:40.808Z,14.40
2019-05-23T10:31:07.525Z,14.50
2019-05-23T10:33:34.270Z,14.60
2019-05-23T10:36:01.446Z,14.60
2019-05-23T10:38:48.245Z,14.70
2019-05-23T10:41:15.257Z,14.80
2019-05-23T10:43:42.064Z,15.00
2019-05-23T10:46:08.986Z,15.10
2019-05-23T10:48:36.127Z,15.20
2019-05-23T10:51:02.809Z,15.40
2019-05-23T10:53:29.530Z,15.50
2019-05-23T10:55:56.447Z,15.50
2019-05-23T10:58:23.227Z,15.50
2019-05-23T11:00:49.939Z,15.70
2019-05-23T11:03:17.189Z,15.90
2019-05-23T11:05:44.186Z,16.00
2019-05-23T11:08:11.237Z,16.10
2019-05-23T11:10:38.928Z,16.20
2019-05-23T11:13:06.038Z,16.50
2019-05-23T11:15:33.144Z,16.60
2019-05-23T11:18:00.435Z,16.80
2019-05-23T11:20:27.258Z,16.90
2019-05-23T11:22:53.988Z,17.10
2019-05-23T11:25:21.359Z,17.00
2019-05-23T11:27:48.201Z,16.80
2019-05-23T11:30:15.765Z,16.60
2019-05-23T11:32:42.672Z,16.40
2019-05-23T11:35:10.107Z,16.30
2019-05-23T11:37:36.809Z,16.20
2019-05-23T11:40:06.218Z,16.20
2019-05-23T11:42:32.937Z,16.30
2019-05-23T11:44:59.799Z,16.40
2019-05-23T11:47:31.003Z,16.60
2019-05-23T11:49:56.186Z,16.60
2019-05-23T11:52:24.889Z,16.60
2019-05-23T11:54:52.512Z,16.50
2019-05-23T11:57:19.903Z,16.50
2019-05-23T11:59:46.771Z,16.40
2019-05-23T12:02:17.725Z,16.30
2019-05-23T12:04:44.496Z,16.10
2019-05-23T12:07:11.347Z,16.10
2019-05-23T12:09:38.336Z,16.10
2019-05-23T12:12:05.185Z,16.10
2019-05-23T12:14:32.085Z,16.20
2019-05-23T12:16:58.976Z,16.30
2019-05-23T12:19:25.771Z,16.70
2019-05-23T12:21:52.624Z,16.70
2019-05-23T12:24:20.062Z,17.20
2019-05-23T12:26:46.772Z,17.50
2019-05-23T12:29:13.590Z,17.40
2019-05-23T12:31:40.667Z,17.30
2019-05-23T12:34:07.451Z,17.10
2019-05-23T12:36:34.178Z,17.00
2019-05-23T12:39:01.121Z,16.90
2019-05-23T12:41:27.879Z,16.80
2019-05-23T12:43:54.819Z,16.80
2019-05-23T12:46:21.667Z,16.80
2019-05-23T12:48:51.277Z,16.80
2019-05-23T12:51:18.188Z,17.00
2019-05-23T12:53:46.139Z,17.30
2019-05-23T12:56:12.971Z,17.60
2019-05-23T12:58:39.672Z,17.60
2019-05-23T13:01:06.467Z,17.50
2019-05-23T13:03:34.643Z,17.40
2019-05-23T13:06:01.372Z,17.20
2019-05-23T13:08:28.439Z,17.10
2019-05-23T13:10:55.782Z,17.00
2019-05-23T13:13:23.013Z,16.90
2019-05-23T13:15:49.898Z,16.90
2019-05-23T13:18:16.907Z,16.90
2019-05-23T13:20:43.856Z,16.80
2019-05-23T13:23:19.545Z,16.90
2019-05-23T13:25:39.459Z,17.00
2019-05-23T13:28:06.680Z,17.50
2019-05-23T13:30:33.815Z,18.10
2019-05-23T13:33:03.600Z,18.60
2019-05-23T13:35:29.436Z,19.20
2019-05-23T13:37:56.221Z,19.60
2019-05-23T13:40:22.948Z,19.90
2019-05-23T13:42:49.668Z,20.10
2019-05-23T13:45:17.436Z,20.10
2019-05-23T13:47:44.278Z,20.00
2019-05-23T13:50:11.301Z,19.70
2019-05-23T13:52:38.189Z,19.40
2019-05-23T13:55:05.702Z,19.20
2019-05-23T13:57:32.417Z,19.00
2019-05-23T13:59:59.297Z,18.90
2019-05-23T14:02:26.002Z,19.20
2019-05-23T14:04:52.826Z,19.60
2019-05-23T14:07:19.811Z,19.90
2019-05-23T14:09:46.630Z,20.00
2019-05-23T14:12:21.826Z,19.60
2019-05-23T14:14:42.038Z,19.20
2019-05-23T14:17:09.052Z,19.00
2019-05-23T14:19:35.767Z,18.80
2019-05-23T14:22:02.941Z,18.60
2019-05-23T14:24:29.663Z,18.40
2019-05-23T14:26:56.364Z,18.30
2019-05-23T14:29:23.357Z,18.40
2019-05-23T14:31:50.069Z,18.40
2019-05-23T14:34:16.865Z,18.30
2019-05-23T14:36:43.747Z,18.30
2019-05-23T14:39:10.979Z,18.30
2019-05-23T14:41:45.059Z,18.30
2019-05-23T14:44:06.674Z,18.30
2019-05-23T14:46:33.418Z,18.30
2019-05-23T14:49:00.444Z,18.30
2019-05-23T14:51:35.214Z,18.20
2019-05-23T14:54:11.469Z,18.20
2019-05-23T14:56:38.354Z,18.10
2019-05-23T14:59:05.073Z,18.20
2019-05-23T15:01:31.815Z,18.20
2019-05-23T15:03:58.902Z,18.10
2019-05-23T15:06:25.639Z,18.10
2019-05-23T15:08:52.573Z,18.00
2019-05-23T15:11:19.491Z,18.00
2019-05-23T15:13:46.205Z,18.00
2019-05-23T15:16:13.023Z,18.00
2019-05-23T15:18:40.157Z,18.30
2019-05-23T15:21:06.979Z,18.80
2019-05-23T15:23:34.105Z,19.60
2019-05-23T15:26:01.000Z,20.20
2019-05-23T15:28:27.732Z,20.80
2019-05-23T15:30:54.451Z,21.20
2019-05-23T15:33:21.315Z,21.70
2019-05-23T15:35:48.192Z,22.00
2019-05-23T15:38:15.013Z,22.20
2019-05-23T15:40:42.292Z,22.20
2019-05-23T15:43:10.035Z,22.20
2019-05-23T15:45:37.419Z,22.40
2019-05-23T15:48:04.783Z,22.30
2019-05-23T15:50:31.509Z,21.80
2019-05-23T15:52:58.371Z,21.20
2019-05-23T15:55:25.738Z,20.70
2019-05-23T15:57:52.470Z,20.30
2019-05-23T16:00:19.825Z,19.80
2019-05-23T16:02:46.789Z,19.50
2019-05-23T16:05:13.529Z,19.30
2019-05-23T16:07:40.670Z,19.10
2019-05-23T16:10:07.869Z,18.80
2019-05-23T16:12:34.679Z,18.70
2019-05-23T16:15:01.490Z,18.60
2019-05-23T16:17:28.351Z,18.70
2019-05-23T16:19:55.074Z,18.90
2019-05-23T16:22:21.837Z,19.10
2019-05-23T16:24:48.818Z,19.30
2019-05-23T16:27:17.314Z,19.40
2019-05-23T16:29:44.052Z,19.30
2019-05-23T16:32:10.931Z,19.20
2019-05-23T16:34:37.663Z,19.10
2019-05-23T16:37:04.617Z,18.90
2019-05-23T16:39:45.782Z,18.80
2019-05-23T16:42:00.207Z,18.70
2019-05-23T16:44:31.614Z,18.60
2019-05-23T16:46:58.678Z,18.50
2019-05-23T16:49:25.513Z,18.40
2019-05-23T16:51:52.218Z,18.20
2019-05-23T16:54:19.232Z,18.00
2019-05-23T16:56:45.959Z,17.90
2019-05-23T16:59:12.817Z,17.90
2019-05-23T17:01:54.870Z,17.80
2019-05-23T17:04:11.035Z,17.80
2019-05-23T17:06:38.094Z,17.70
2019-05-23T17:09:06.463Z,17.60
2019-05-23T17:11:33.240Z,17.60
2019-05-23T17:13:59.956Z,17.50
2019-05-23T17:16:26.749Z,17.50
2019-05-23T17:18:53.562Z,17.50
2019-05-23T17:21:21.082Z,17.40
2019-05-23T17:23:47.826Z,17.30
2019-05-23T17:26:14.637Z,17.30
2019-05-23T17:28:41.580Z,17.30
2019-05-23T17:31:08.411Z,17.20
2019-05-23T17:33:37.085Z,17.10
2019-05-23T17:36:04.038Z,17.10
2019-05-23T17:38:30.853Z,16.90
2019-05-23T17:40:57.539Z,16.90
2019-05-23T17:43:24.949Z,16.80
2019-05-23T17:45:51.822Z,16.80
2019-05-23T17:48:18.615Z,16.70
2019-05-23T17:50:45.547Z,16.60
2019-05-23T17:53:12.361Z,16.60
2019-05-23T17:55:39.075Z,16.50
2019-05-23T17:58:06.255Z,16.40
2019-05-23T18:00:33.171Z,16.40
2019-05-23T18:02:59.946Z,16.30
2019-05-23T18:05:26.991Z,16.30
2019-05-23T18:07:56.987Z,16.20
2019-05-23T18:10:23.682Z,16.10
2019-05-23T18:12:50.553Z,16.00
2019-05-23T18:15:17.494Z,15.90
2019-05-23T18:17:44.219Z,15.70
2019-05-23T18:20:12.527Z,15.60
2019-05-23T18:22:39.206Z,15.50
2019-05-23T18:25:06.554Z,15.40
2019-05-23T18:27:33.429Z,15.30
2019-05-23T18:30:00.688Z,15.20
2019-05-23T18:32:27.510Z,15.10
2019-05-23T18:34:54.675Z,15.00
2019-05-23T18:37:22.021Z,14.90
2019-05-23T18:39:48.801Z,14.80
2019-05-23T18:42:15.685Z,14.80
2019-05-23T18:44:42.392Z,14.70
2019-05-23T18:47:09.133Z,14.50
2019-05-23T18:49:36.099Z,14.40
2019-05-23T18:52:03.237Z,14.30
2019-05-23T18:54:29.963Z,14.30
2019-05-23T18:56:56.811Z,14.30
2019-05-23T18:59:23.550Z,14.30
2019-05-23T19:01:50.279Z,14.00
2019-05-23T19:04:17.146Z,13.80
2019-05-23T19:06:44.186Z,13.70
2019-05-23T19:09:11.032Z,13.70
2019-05-23T19:11:38.816Z,13.50
2019-05-23T19:14:05.539Z,13.40
2019-05-23T19:16:32.278Z,13.40
2019-05-23T19:18:59.281Z,13.40
2019-05-23T19:21:26.098Z,13.30
2019-05-23T19:23:52.821Z,13.30
2019-05-23T19:26:20.399Z,13.20
2019-05-23T19:28:47.128Z,13.10
2019-05-23T19:31:14.158Z,13.00
2019-05-23T19:33:41.162Z,12.90
2019-05-23T19:36:07.943Z,12.80
2019-05-23T19:38:34.716Z,12.70
2019-05-23T19:41:02.893Z,12.60
2019-05-23T19:43:29.718Z,12.60
2019-05-23T19:45:56.631Z,12.40
2019-05-23T19:48:23.524Z,12.40
2019-05-23T19:50:50.251Z,12.30
2019-05-23T19:53:17.072Z,12.20
2019-05-23T19:55:44.332Z,12.20
2019-05-23T19:58:11.068Z,12.10
2019-05-23T20:00:37.763Z,12.00
2019-05-23T20:03:24.371Z,12.00
2019-05-23T20:05:52.090Z,11.90
2019-05-23T20:08:18.818Z,11.90
2019-05-23T20:10:46.150Z,11.90
2019-05-23T20:13:12.945Z,11.90
2019-05-23T20:15:39.766Z,11.80
2019-05-23T20:18:06.794Z,11.70
2019-05-23T20:20:34.887Z,11.70
2019-05-23T20:23:01.620Z,11.50
2019-05-23T20:25:28.634Z,11.40
2019-05-23T20:27:55.517Z,11.40
2019-05-23T20:30:46.465Z,11.30
2019-05-23T20:33:13.568Z,11.20
2019-05-23T20:35:40.412Z,11.10
2019-05-23T20:38:07.785Z,11.10
2019-05-23T20:40:34.718Z,10.90
2019-05-23T20:43:02.670Z,10.90
2019-05-23T20:45:29.787Z,10.80
2019-05-23T20:47:56.569Z,10.70
2019-05-23T20:50:23.422Z,10.60
2019-05-23T20:52:50.279Z,10.60
2019-05-23T20:55:17.007Z,10.50
2019-05-23T20:57:43.711Z,10.40
2019-05-23T21:00:11.100Z,10.30
2019-05-23T21:02:37.809Z,10.30
2019-05-23T21:05:05.739Z,10.20
2019-05-23T21:07:32.625Z,10.20
2019-05-23T21:09:59.472Z,10.20
2019-05-23T21:12:30.204Z,10.20
2019-05-23T21:14:54.868Z,10.10
2019-05-23T21:17:21.602Z,10.10
2019-05-23T21:19:48.301Z,10.20
2019-05-23T21:22:15.385Z,10.20
2019-05-23T21:24:42.087Z,10.00
2019-05-23T21:27:08.812Z,9.90
2019-05-23T21:29:35.688Z,9.80
2019-05-23T21:32:02.563Z,9.70
2019-05-23T21:34:29.201Z,9.60
2019-05-23T21:36:56.087Z,9.60
2019-05-23T21:39:22.783Z,9.60
2019-05-23T21:41:49.546Z,9.60
2019-05-23T21:44:16.526Z,9.50
2019-05-23T21:46:43.262Z,9.50
2019-05-23T21:49:09.949Z,9.50
2019-05-23T21:51:36.911Z,9.40
2019-05-23T21:54:03.640Z,9.40
2019-05-23T21:56:30.375Z,9.50
2019-05-23T21:58:57.231Z,9.40
2019-05-23T22:01:24.330Z,9.40
2019-05-23T22:03:51.874Z,9.40
2019-05-23T22:06:20.064Z,9.30
2019-05-23T22:08:46.780Z,9.30
2019-05-23T22:11:13.607Z,9.20
2019-05-23T22:13:40.442Z,9.20
2019-05-23T22:16:07.564Z,9.10
2019-05-23T22:18:34.708Z,9.10
2019-05-23T22:21:01.580Z,9.00
2019-05-23T22:23:28.308Z,9.00
2019-05-23T22:25:55.125Z,9.00
2019-05-23T22:28:22.014Z,9.00
2019-05-23T22:30:48.721Z,9.00
2019-05-23T22:33:15.751Z,8.70
2019-05-23T22:35:42.643Z,8.70
2019-05-23T22:38:09.477Z,8.70
2019-05-23T22:40:38.575Z,8.70
2019-05-23T22:43:18.656Z,8.60
2019-05-23T22:45:33.909Z,8.60
2019-05-23T22:48:00.618Z,8.50
2019-05-23T22:50:30.644Z,8.50
2019-05-23T22:52:57.353Z,8.50
2019-05-23T22:55:24.080Z,8.40
2019-05-23T22:57:50.863Z,8.30
2019-05-23T23:00:17.700Z,8.30
2019-05-23T23:02:46.067Z,8.30
2019-05-23T23:05:13.526Z,8.30
2019-05-23T23:07:40.256Z,8.30
2019-05-23T23:10:07.504Z,8.20
2019-05-23T23:12:34.496Z,8.20
2019-05-23T23:15:01.226Z,8.20
2019-05-23T23:17:29.247Z,8.10
2019-05-23T23:19:56.117Z,8.20
2019-05-23T23:22:22.876Z,8.20
2019-05-23T23:24:49.726Z,8.10
2019-05-23T23:27:16.598Z,8.10
2019-05-23T23:29:43.429Z,8.00
2019-05-23T23:32:10.167Z,8.00
2019-05-23T23:34:37.048Z,7.90
2019-05-23T23:37:03.786Z,7.90
2019-05-23T23:39:30.480Z,7.90
2019-05-23T23:41:57.335Z,7.80
2019-05-23T23:44:24.114Z,7.80
2019-05-23T23:46:50.939Z,7.80
2019-05-23T23:49:17.832Z,7.80
2019-05-23T23:51:44.534Z,7.60
2019-05-23T23:54:11.296Z,7.60
2019-05-23T23:56:38.159Z,7.60
2019-05-23T23:59:04.897Z,7.60
